createdAt,value
2022-10-17T00:01:29.300Z,13.23
2022-10-17T00:04:02.446Z,14.97
2022-10-17T00:06:32.355Z,14.80
2022-10-17T00:09:02.313Z,12.90
2022-10-17T00:11:32.195Z,12.97
2022-10-17T00:14:02.162Z,12.50
2022-10-17T00:16:37.284Z,12.40
2022-10-17T00:19:07.698Z,11.63
2022-10-17T00:21:37.537Z,10.83
2022-10-17T00:24:08.605Z,10.80
2022-10-17T00:26:38.882Z,10.57
2022-10-17T00:29:09.130Z,10.37
2022-10-17T00:31:41.632Z,10.27
2022-10-17T00:34:11.409Z,11.07
2022-10-17T00:36:41.332Z,11.10
2022-10-17T00:39:12.153Z,9.50
2022-10-17T00:41:42.437Z,9.50
2022-10-17T00:44:42.048Z,9.00
2022-10-17T00:47:18.719Z,9.50
2022-10-17T00:49:51.100Z,8.80
2022-10-17T00:52:26.778Z,8.50
2022-10-17T00:55:01.486Z,8.80
2022-10-17T00:57:35.768Z,8.57
2022-10-17T01:00:09.687Z,8.30
2022-10-17T01:02:42.406Z,8.07
2022-10-17T01:05:13.468Z,7.90
2022-10-17T01:07:47.742Z,7.87
2022-10-17T01:10:18.051Z,8.07
2022-10-17T01:13:09.174Z,8.30
2022-10-17T01:15:53.255Z,8.00
2022-10-17T01:18:38.123Z,7.80
2022-10-17T01:21:30.398Z,8.90
2022-10-17T01:24:30.245Z,10.50
2022-10-17T01:27:31.943Z,7.67
2022-10-17T01:30:25.298Z,8.67
2022-10-17T01:33:01.419Z,7.77
2022-10-17T01:35:38.595Z,10.93
2022-10-17T01:38:15.918Z,8.97
2022-10-17T01:40:52.344Z,6.90
2022-10-17T01:43:28.651Z,6.43
2022-10-17T01:46:04.756Z,6.63
2022-10-17T01:48:41.915Z,12.30
2022-10-17T01:51:18.870Z,9.77
2022-10-17T01:53:54.939Z,7.20
2022-10-17T01:56:28.754Z,6.43
2022-10-17T01:59:03.355Z,6.87
2022-10-17T02:01:37.063Z,6.53
2022-10-17T02:04:13.936Z,6.20
2022-10-17T02:06:46.244Z,7.70
2022-10-17T02:09:22.211Z,6.83
2022-10-17T02:12:13.357Z,6.53
2022-10-17T02:14:59.837Z,7.27
2022-10-17T02:17:41.537Z,6.83
2022-10-17T02:20:23.296Z,5.83
2022-10-17T02:22:59.394Z,5.87
2022-10-17T02:25:38.618Z,6.07
2022-10-17T02:28:22.463Z,5.60
2022-10-17T02:30:57.550Z,6.10
2022-10-17T02:33:32.268Z,7.50
2022-10-17T02:36:09.029Z,6.10
2022-10-17T02:38:39.535Z,5.60
2022-10-17T02:41:18.377Z,5.67
2022-10-17T02:43:51.401Z,6.37
2022-10-17T02:46:24.114Z,7.87
2022-10-17T02:48:56.273Z,5.63
2022-10-17T02:51:34.116Z,5.33
2022-10-17T02:54:10.314Z,5.97
2022-10-17T02:56:46.273Z,5.60
2022-10-17T02:59:20.362Z,6.10
2022-10-17T03:01:51.651Z,7.67
2022-10-17T03:04:22.719Z,5.93
2022-10-17T03:06:55.344Z,6.10
2022-10-17T03:09:26.320Z,6.27
2022-10-17T03:11:58.916Z,6.20
2022-10-17T03:14:28.673Z,5.83
2022-10-17T03:17:01.641Z,6.83
2022-10-17T03:19:31.462Z,6.90
2022-10-17T03:22:04.202Z,10.17
2022-10-17T03:24:35.659Z,6.83
2022-10-17T03:27:05.788Z,7.03
2022-10-17T03:29:35.756Z,7.47
2022-10-17T03:32:07.287Z,6.93
2022-10-17T03:34:37.676Z,8.07
2022-10-17T03:37:10.325Z,20.27
2022-10-17T03:39:42.420Z,7.33
2022-10-17T03:42:15.222Z,6.90
2022-10-17T03:44:45.248Z,7.87
2022-10-17T03:47:16.083Z,7.43
2022-10-17T03:49:47.374Z,7.17
2022-10-17T03:52:21.721Z,7.83
2022-10-17T03:54:52.662Z,8.67
2022-10-17T03:57:22.573Z,8.07
2022-10-17T03:59:54.217Z,7.73
2022-10-17T04:02:24.830Z,7.73
2022-10-17T04:04:55.414Z,8.37
2022-10-17T04:07:27.889Z,8.73
2022-10-17T04:09:57.829Z,8.60
2022-10-17T04:12:28.349Z,8.80
2022-10-17T04:14:58.386Z,8.27
2022-10-17T04:17:28.954Z,8.67
2022-10-17T04:19:58.778Z,8.90
2022-10-17T04:22:31.380Z,8.27
2022-10-17T04:25:01.384Z,8.70
2022-10-17T04:27:37.653Z,9.00
2022-10-17T04:30:08.748Z,8.80
2022-10-17T04:32:40.326Z,8.73
2022-10-17T04:35:22.608Z,9.47
2022-10-17T04:38:05.993Z,7.67
2022-10-17T04:40:35.780Z,8.43
2022-10-17T04:43:05.778Z,8.57
2022-10-17T04:45:39.152Z,8.07
2022-10-17T04:48:09.988Z,8.83
2022-10-17T04:50:39.909Z,8.70
2022-10-17T04:53:46.220Z,8.20
2022-10-17T04:56:19.425Z,8.97
2022-10-17T04:58:49.834Z,8.13
2022-10-17T05:01:22.021Z,9.93
2022-10-17T05:03:56.065Z,9.00
2022-10-17T05:06:28.311Z,9.17
2022-10-17T05:09:30.754Z,9.27
2022-10-17T05:12:01.104Z,9.20
2022-10-17T05:14:33.218Z,9.13
2022-10-17T05:17:03.629Z,8.70
2022-10-17T05:19:33.456Z,9.03
2022-10-17T05:22:03.368Z,9.50
2022-10-17T05:24:35.727Z,9.37
2022-10-17T05:27:06.550Z,9.07
2022-10-17T05:29:37.195Z,9.20
2022-10-17T05:32:16.167Z,9.23
2022-10-17T05:34:46.316Z,10.07
2022-10-17T05:37:16.476Z,9.07
2022-10-17T05:39:53.641Z,9.03
2022-10-17T05:42:23.572Z,9.90
2022-10-17T05:44:53.361Z,10.10
2022-10-17T05:47:23.311Z,8.83
2022-10-17T05:49:53.107Z,9.90
2022-10-17T05:52:33.002Z,9.60
2022-10-17T05:55:15.462Z,10.27
2022-10-17T05:57:45.524Z,9.27
2022-10-17T06:00:19.848Z,9.93
2022-10-17T06:02:58.285Z,9.77
2022-10-17T06:05:28.242Z,9.90
2022-10-17T06:08:01.915Z,10.13
2022-10-17T06:10:36.888Z,9.50
2022-10-17T06:13:07.201Z,9.50
2022-10-17T06:15:37.863Z,8.63
2022-10-17T06:18:10.590Z,9.43
2022-10-17T06:20:45.249Z,9.77
2022-10-17T06:23:17.283Z,9.97
2022-10-17T06:26:01.622Z,9.70
2022-10-17T06:28:32.598Z,8.47
2022-10-17T06:31:02.572Z,14.53
2022-10-17T06:33:32.583Z,9.87
2022-10-17T06:36:02.725Z,9.00
2022-10-17T06:38:34.163Z,10.00
2022-10-17T06:41:10.142Z,9.20
2022-10-17T06:43:40.924Z,9.50
2022-10-17T06:46:31.086Z,9.50
2022-10-17T06:49:04.742Z,9.83
2022-10-17T06:51:46.529Z,8.73
2022-10-17T06:54:19.064Z,9.10
2022-10-17T06:57:10.267Z,9.33
2022-10-17T06:59:53.411Z,9.80
2022-10-17T07:02:28.734Z,9.60
2022-10-17T07:05:01.642Z,10.10
2022-10-17T07:07:33.507Z,9.37
2022-10-17T07:10:04.378Z,9.30
2022-10-17T07:12:37.159Z,8.63
2022-10-17T07:15:07.895Z,8.17
2022-10-17T07:17:37.841Z,8.13
2022-10-17T07:20:08.567Z,8.13
2022-10-17T07:22:40.501Z,9.03
2022-10-17T07:25:12.209Z,7.97
2022-10-17T07:27:51.835Z,7.87
2022-10-17T07:30:21.838Z,8.23
2022-10-17T07:33:11.845Z,11.00
2022-10-17T07:35:43.698Z,7.80
2022-10-17T07:38:14.292Z,8.37
2022-10-17T07:40:48.353Z,9.23
2022-10-17T07:43:21.000Z,7.83
2022-10-17T07:45:51.094Z,7.43
2022-10-17T07:48:21.723Z,7.40
2022-10-17T07:50:53.764Z,6.90
2022-10-17T07:53:25.723Z,7.83
2022-10-17T07:55:55.547Z,9.80
2022-10-17T07:58:29.018Z,7.20
2022-10-17T08:03:52.649Z,7.43
2022-10-17T08:06:22.487Z,6.43
2022-10-17T08:08:52.461Z,7.00
2022-10-17T08:11:23.301Z,8.87
2022-10-17T08:13:58.963Z,6.30
2022-10-17T08:16:28.719Z,8.47
2022-10-17T08:18:58.831Z,6.40
2022-10-17T08:21:31.690Z,6.00
2022-10-17T08:24:02.858Z,5.75
2022-10-17T08:26:33.007Z,7.43
2022-10-17T08:29:05.555Z,5.70
2022-10-17T08:31:35.620Z,5.50
2022-10-17T08:34:05.509Z,5.32
2022-10-17T08:36:37.380Z,10.15
2022-10-17T08:39:07.904Z,6.55
2022-10-17T08:41:52.207Z,7.13
2022-10-17T08:44:37.065Z,6.00
2022-10-17T08:47:14.453Z,11.25
2022-10-17T08:49:52.676Z,9.18
2022-10-17T08:52:32.025Z,5.50
2022-10-17T08:55:01.973Z,7.30
2022-10-17T08:57:32.358Z,7.43
2022-10-17T09:00:05.569Z,6.28
2022-10-17T09:02:47.752Z,7.65
2022-10-17T09:05:39.891Z,8.32
2022-10-17T09:08:22.361Z,8.63
2022-10-17T09:11:00.169Z,5.60
2022-10-17T09:13:45.064Z,10.07
2022-10-17T09:16:37.308Z,6.00
2022-10-17T09:19:12.789Z,5.43
2022-10-17T09:21:49.196Z,6.15
2022-10-17T09:24:25.388Z,5.20
2022-10-17T09:26:57.360Z,5.22
2022-10-17T09:29:35.357Z,5.63
2022-10-17T09:32:17.796Z,4.75
2022-10-17T09:34:48.050Z,5.30
2022-10-17T09:37:19.995Z,12.23
2022-10-17T09:39:49.810Z,5.70
2022-10-17T09:42:23.703Z,5.88
2022-10-17T09:44:59.934Z,5.32
2022-10-17T09:47:42.015Z,5.13
2022-10-17T09:50:21.531Z,4.78
2022-10-17T09:52:51.941Z,6.50
2022-10-17T09:55:25.172Z,6.38
2022-10-17T09:57:58.348Z,4.50
2022-10-17T10:00:32.551Z,6.32
2022-10-17T10:03:19.176Z,5.88
2022-10-17T10:06:03.526Z,6.68
2022-10-17T10:08:35.445Z,6.13
2022-10-17T10:11:13.407Z,14.90
2022-10-17T10:13:45.103Z,6.28
2022-10-17T10:16:24.467Z,10.75
2022-10-17T10:18:56.819Z,4.38
2022-10-17T10:21:28.609Z,4.80
2022-10-17T10:24:14.651Z,4.88
2022-10-17T10:26:48.830Z,4.80
2022-10-17T10:29:30.826Z,5.80
2022-10-17T10:32:10.155Z,4.15
2022-10-17T10:34:53.534Z,6.22
2022-10-17T10:37:26.613Z,5.53
2022-10-17T10:39:59.373Z,4.75
2022-10-17T10:42:32.683Z,4.88
2022-10-17T10:45:09.419Z,4.45
2022-10-17T10:47:56.343Z,7.97
2022-10-17T10:50:36.334Z,5.38
2022-10-17T10:53:19.185Z,5.07
2022-10-17T10:55:53.525Z,4.53
2022-10-17T10:58:40.288Z,4.70
2022-10-17T11:01:20.928Z,4.88
2022-10-17T11:04:00.464Z,9.68
2022-10-17T11:06:38.799Z,5.15
2022-10-17T11:09:20.203Z,4.38
2022-10-17T11:11:58.455Z,5.55
2022-10-17T11:14:41.156Z,5.47
2022-10-17T11:17:22.607Z,6.35
2022-10-17T11:19:59.564Z,5.35
2022-10-17T11:22:35.324Z,6.30
2022-10-17T11:25:15.817Z,4.97
2022-10-17T11:27:45.577Z,4.45
2022-10-17T11:30:18.260Z,5.78
2022-10-17T11:32:53.853Z,6.43
2022-10-17T11:35:28.844Z,4.60
2022-10-17T11:38:21.399Z,6.65
2022-10-17T11:40:54.375Z,5.20
2022-10-17T11:43:29.506Z,5.18
2022-10-17T11:46:04.982Z,7.55
2022-10-17T11:48:41.733Z,5.07
2022-10-17T11:54:09.454Z,6.70
2022-10-17T11:56:47.486Z,5.13
2022-10-17T11:59:45.271Z,5.80
2022-10-17T12:02:24.640Z,5.20
2022-10-17T12:05:02.324Z,5.13
2022-10-17T12:07:41.037Z,5.15
2022-10-17T12:10:24.970Z,5.40
2022-10-17T12:12:54.835Z,6.05
2022-10-17T12:15:33.915Z,5.95
2022-10-17T12:18:05.318Z,6.70
2022-10-17T12:20:38.336Z,6.38
2022-10-17T12:23:29.521Z,5.45
2022-10-17T12:26:05.421Z,5.22
2022-10-17T12:28:43.542Z,6.00
2022-10-17T12:31:32.543Z,5.63
2022-10-17T12:34:05.805Z,7.47
2022-10-17T12:36:50.635Z,5.57
2022-10-17T12:39:55.210Z,5.43
2022-10-17T12:42:50.764Z,5.38
2022-10-17T12:45:48.585Z,6.45
2022-10-17T12:48:48.245Z,5.80
2022-10-17T12:51:37.329Z,7.90
2022-10-17T12:54:15.231Z,8.05
2022-10-17T12:56:47.301Z,6.65
2022-10-17T12:59:24.071Z,7.00
2022-10-17T13:01:58.260Z,8.63
2022-10-17T13:04:31.181Z,7.40
2022-10-17T13:07:02.556Z,9.00
2022-10-17T13:09:35.388Z,7.13
2022-10-17T13:12:09.490Z,7.47
2022-10-17T13:14:46.379Z,7.47
2022-10-17T13:17:26.032Z,7.00
2022-10-17T13:19:56.530Z,7.88
2022-10-17T13:22:28.913Z,6.57
2022-10-17T13:25:10.016Z,6.72
2022-10-17T13:27:40.381Z,6.10
2022-10-17T13:30:32.148Z,6.90
2022-10-17T13:33:02.699Z,6.18
2022-10-17T13:35:58.892Z,6.75
2022-10-17T13:38:29.728Z,6.78
2022-10-17T13:41:06.089Z,6.63
2022-10-17T13:43:50.566Z,7.25
2022-10-17T13:46:39.959Z,6.55
2022-10-17T13:49:25.860Z,5.20
2022-10-17T13:51:58.853Z,4.70
2022-10-17T13:54:38.034Z,4.65
2022-10-17T13:57:09.672Z,4.60
2022-10-17T13:59:42.803Z,8.23
2022-10-17T14:02:19.984Z,7.47
2022-10-17T14:05:15.629Z,5.93
2022-10-17T14:08:09.393Z,6.10
2022-10-17T14:10:36.994Z,6.78
2022-10-17T14:13:09.051Z,8.20
2022-10-17T14:15:39.999Z,7.35
2022-10-17T14:18:21.655Z,5.47
2022-10-17T14:21:34.323Z,5.13
2022-10-17T14:23:45.201Z,4.47
2022-10-17T14:26:18.340Z,4.78
2022-10-17T14:28:51.103Z,5.50
2022-10-17T14:31:32.493Z,5.75
2022-10-17T14:34:07.550Z,5.15
2022-10-17T14:36:42.077Z,4.65
2022-10-17T14:39:22.432Z,4.90
2022-10-17T14:41:53.808Z,9.20
2022-10-17T14:44:28.561Z,5.97
2022-10-17T14:47:18.370Z,5.18
2022-10-17T14:50:06.704Z,5.40
2022-10-17T14:52:38.967Z,5.15
2022-10-17T14:55:26.012Z,5.00
2022-10-17T14:57:55.735Z,6.38
2022-10-17T15:00:26.881Z,8.02
2022-10-17T15:02:58.264Z,6.30
2022-10-17T15:05:30.686Z,4.82
2022-10-17T15:08:00.532Z,5.95
2022-10-17T15:10:37.097Z,6.40
2022-10-17T15:13:27.303Z,4.78
2022-10-17T15:15:57.244Z,7.45
2022-10-17T15:18:27.060Z,6.53
2022-10-17T15:21:06.468Z,5.10
2022-10-17T15:23:47.503Z,7.40
2022-10-17T15:26:19.001Z,4.45
2022-10-17T15:28:50.205Z,6.30
2022-10-17T15:31:21.612Z,23.60
2022-10-17T15:33:52.238Z,5.53
2022-10-17T15:36:27.641Z,6.28
2022-10-17T15:38:59.830Z,6.80
2022-10-17T15:41:32.324Z,7.00
2022-10-17T15:44:02.678Z,4.82
2022-10-17T15:46:35.544Z,5.55
2022-10-17T15:49:08.664Z,13.70
2022-10-17T15:51:41.306Z,9.32
2022-10-17T15:54:14.155Z,9.60
2022-10-17T15:56:46.301Z,9.50
2022-10-17T15:59:19.768Z,12.02
2022-10-17T16:01:49.820Z,14.70
2022-10-17T16:04:19.933Z,14.80
2022-10-17T16:06:52.430Z,7.65
2022-10-17T16:09:22.430Z,12.00
2022-10-17T16:12:01.536Z,7.70
2022-10-17T16:14:32.514Z,9.57
2022-10-17T16:17:02.993Z,8.15
2022-10-17T16:19:35.066Z,8.73
2022-10-17T16:22:08.225Z,8.70
2022-10-17T16:24:40.372Z,15.18
2022-10-17T16:27:11.258Z,9.07
2022-10-17T16:29:42.008Z,9.20
2022-10-17T16:32:13.136Z,12.65
2022-10-17T16:34:43.044Z,11.13
2022-10-17T16:37:15.405Z,10.38
2022-10-17T16:39:49.181Z,12.38
2022-10-17T16:42:19.105Z,9.80
2022-10-17T16:44:49.273Z,10.60
2022-10-17T16:47:19.403Z,14.25
2022-10-17T16:49:49.397Z,9.13
2022-10-17T16:52:21.865Z,9.88
2022-10-17T16:54:51.903Z,10.07
2022-10-17T16:57:21.953Z,11.38
2022-10-17T16:59:52.195Z,10.15
2022-10-17T17:02:21.975Z,9.63
2022-10-17T17:04:51.848Z,10.32
2022-10-17T17:07:24.606Z,11.57
2022-10-17T17:09:57.098Z,10.48
2022-10-17T17:12:27.097Z,10.50
2022-10-17T17:14:57.038Z,10.50
2022-10-17T17:17:37.065Z,11.13
2022-10-17T17:20:16.846Z,11.52
2022-10-17T17:22:50.902Z,11.13
2022-10-17T17:25:20.706Z,11.98
2022-10-17T17:27:50.475Z,12.20
2022-10-17T17:30:20.720Z,12.00
2022-10-17T17:32:50.610Z,13.45
2022-10-17T17:35:20.913Z,14.27
2022-10-17T17:37:53.213Z,14.20
2022-10-17T17:40:23.149Z,13.80
2022-10-17T17:42:52.992Z,14.20
2022-10-17T17:45:22.782Z,13.35
2022-10-17T17:47:53.968Z,14.25
2022-10-17T17:50:23.833Z,15.27
2022-10-17T17:52:56.188Z,15.98
2022-10-17T17:55:25.949Z,15.48
2022-10-17T17:57:56.679Z,17.20
2022-10-17T18:00:26.572Z,16.10
2022-10-17T18:02:56.426Z,19.67
2022-10-17T18:05:47.384Z,17.27
2022-10-17T18:08:27.778Z,17.23
2022-10-17T18:10:58.795Z,17.13
2022-10-17T18:13:28.661Z,16.77
2022-10-17T18:15:59.688Z,19.20
2022-10-17T18:18:31.239Z,14.23
2022-10-17T18:21:04.210Z,19.80
2022-10-17T18:23:40.229Z,14.55
2022-10-17T18:26:10.525Z,15.63
2022-10-17T18:31:35.875Z,14.88
2022-10-17T18:34:07.429Z,13.05
2022-10-17T18:36:38.016Z,12.93
2022-10-17T18:39:10.531Z,13.50
2022-10-17T18:41:40.679Z,14.40
2022-10-17T18:44:12.404Z,13.30
2022-10-17T18:46:43.090Z,13.95
2022-10-17T18:49:15.204Z,13.57
2022-10-17T18:51:48.668Z,14.48
2022-10-17T18:54:24.553Z,13.73
2022-10-17T18:56:56.474Z,14.45
2022-10-17T18:59:26.265Z,13.65
2022-10-17T19:01:56.309Z,13.05
2022-10-17T19:04:26.288Z,13.43
2022-10-17T19:06:56.101Z,12.52
2022-10-17T19:09:28.863Z,11.55
2022-10-17T19:12:00.244Z,11.80
2022-10-17T19:14:31.448Z,10.48
2022-10-17T19:17:02.501Z,13.35
2022-10-17T19:19:32.539Z,12.07
2022-10-17T19:22:03.679Z,10.88
2022-10-17T19:24:36.022Z,15.05
2022-10-17T19:27:06.904Z,17.67
2022-10-17T19:29:36.814Z,15.18
2022-10-17T19:32:14.117Z,12.00
2022-10-17T19:34:46.663Z,11.43
2022-10-17T19:37:16.429Z,11.00
2022-10-17T19:39:48.753Z,10.77
2022-10-17T19:42:18.461Z,11.05
2022-10-17T19:44:48.633Z,13.50
2022-10-17T19:47:18.374Z,11.05
2022-10-17T19:49:50.147Z,11.30
2022-10-17T19:52:20.026Z,11.85
2022-10-17T19:54:52.426Z,31.52
2022-10-17T19:57:22.137Z,33.88
2022-10-17T19:59:53.745Z,14.63
2022-10-17T20:02:26.126Z,11.90
2022-10-17T20:05:13.818Z,12.57
2022-10-17T20:07:45.669Z,11.75
2022-10-17T20:10:19.005Z,12.77
2022-10-17T20:12:48.994Z,12.02
2022-10-17T20:15:18.983Z,13.32
2022-10-17T20:17:48.826Z,15.23
2022-10-17T20:20:18.730Z,13.68
2022-10-17T20:22:48.476Z,12.57
2022-10-17T20:25:20.932Z,14.02
2022-10-17T20:27:50.731Z,13.07
2022-10-17T20:30:20.658Z,12.68
2022-10-17T20:32:55.149Z,14.27
2022-10-17T20:35:25.906Z,15.43
2022-10-17T20:37:55.673Z,13.77
2022-10-17T20:40:35.852Z,12.93
2022-10-17T20:43:06.659Z,14.00
2022-10-17T20:45:50.728Z,17.85
2022-10-17T20:48:21.767Z,14.27
2022-10-17T20:50:52.184Z,13.65
2022-10-17T20:53:36.532Z,13.57
2022-10-17T20:56:12.383Z,14.45
2022-10-17T20:58:42.174Z,14.25
2022-10-17T21:01:13.337Z,13.95
2022-10-17T21:03:46.375Z,14.13
2022-10-17T21:06:17.115Z,14.77
2022-10-17T21:08:47.732Z,14.82
2022-10-17T21:11:21.635Z,14.13
2022-10-17T21:13:57.341Z,12.85
2022-10-17T21:16:27.722Z,14.30
2022-10-17T21:18:58.276Z,14.40
2022-10-17T21:21:29.783Z,13.32
2022-10-17T21:24:01.619Z,13.30
2022-10-17T21:26:37.009Z,14.20
2022-10-17T21:29:07.876Z,14.10
2022-10-17T21:31:40.192Z,14.32
2022-10-17T21:34:11.533Z,12.98
2022-10-17T21:36:42.275Z,17.58
2022-10-17T21:39:13.438Z,14.40
2022-10-17T21:41:47.194Z,14.30
2022-10-17T21:44:19.463Z,15.80
2022-10-17T21:46:50.026Z,14.18
2022-10-17T21:49:22.238Z,13.93
2022-10-17T21:51:52.554Z,14.32
2022-10-17T21:54:24.046Z,14.88
2022-10-17T21:56:56.550Z,13.82
2022-10-17T21:59:26.489Z,15.02
2022-10-17T22:01:56.291Z,14.57
2022-10-17T22:04:28.334Z,18.15
2022-10-17T22:06:58.215Z,15.70
2022-10-17T22:09:28.763Z,16.58
2022-10-17T22:12:01.108Z,15.27
2022-10-17T22:14:31.229Z,15.13
2022-10-17T22:17:01.521Z,14.05
2022-10-17T22:19:31.239Z,15.23
2022-10-17T22:22:01.048Z,14.60
2022-10-17T22:24:33.170Z,15.30
2022-10-17T22:27:09.207Z,15.45
2022-10-17T22:29:39.697Z,15.82
2022-10-17T22:32:09.731Z,15.63
2022-10-17T22:34:39.598Z,14.80
2022-10-17T22:37:09.515Z,14.73
2022-10-17T22:39:39.402Z,15.73
2022-10-17T22:42:12.038Z,17.33
2022-10-17T22:44:41.844Z,17.65
2022-10-17T22:47:11.744Z,28.58
2022-10-17T22:49:41.539Z,18.23
2022-10-17T22:52:11.278Z,18.33
2022-10-17T22:54:41.008Z,16.85
2022-10-17T22:57:13.904Z,18.00
2022-10-17T22:59:43.878Z,17.35
2022-10-17T23:02:13.705Z,16.60
2022-10-17T23:04:46.963Z,16.67
2022-10-17T23:07:17.127Z,16.90
2022-10-17T23:09:49.849Z,17.33
2022-10-17T23:12:22.522Z,16.27
2022-10-17T23:14:52.289Z,15.70
2022-10-17T23:17:22.087Z,16.50
2022-10-17T23:19:54.162Z,18.35
2022-10-17T23:22:26.863Z,16.27
2022-10-17T23:24:56.544Z,15.60
2022-10-17T23:29:59.925Z,16.25
2022-10-17T23:32:29.811Z,16.75
2022-10-17T23:34:59.767Z,15.77
2022-10-17T23:37:29.673Z,17.13
2022-10-17T23:39:59.552Z,17.02
2022-10-17T23:42:31.843Z,15.43
2022-10-17T23:45:01.762Z,16.15
2022-10-17T23:47:31.724Z,20.05
2022-10-17T23:50:01.731Z,16.45
2022-10-17T23:52:31.572Z,16.30
2022-10-17T23:55:01.416Z,16.13
2022-10-17T23:57:34.259Z,15.70
